Terminal Aerodrome Forecast
Issued by NWS

Home | Current Version | Previous Version | Text Only | Print | Product List | Glossary On
Versions: 1 2 3 4 5 6 7 8 9 10 11 12 13 14 15 16 17 18 19 20 21 22 23 24 25
000
FTUS43 KOAX 231731
TAFBFF
TAF
KBFF 231731Z 2318/2418 12012KT 3SM BR VCTS BKN005 OVC015CB
     FM232200 11015KT P6SM VCTS SCT007 OVC015CB
     FM240200 10012KT 3SM -RA BR SCT003 OVC007
     FM241300 09006KT P6SM OVC020=

USA.gov is the U.S. government's official web portal to all federal, state and local government web resources and services.